Biron, Wisconsin
Current Conditions -  °F | °C
As of 9:54 PM on Saturday 25 Oct 2014 (Local Time) from KISW Reporting Station
Clear Clear  
Wind Chill: 45°   Ceiling: Unl
Heat Index: 48°   Visibility: 10mi
Dew Point: 27°   Wind: 7mph
Humidity: 44%   Direction: 270°W
Pressure: 29.98"   Gusts: NA
Location:  44.3431°N, 89.7334°W
Report Text: KISW 260254Z AUTO 27006KT 10SM CLR 09/M03 A2998 RMK AO2 SLP156 T00891028 51012 $
Loading
Personal Weather Stations






























Interactive Weather Map
Tropical Storm Tracking
New forecast layout! Learn more

10-Day Weather Forecast

Advertisements
Track Severe Weather on mobile